Torm Alexandra — 9V2614 — position and weather

sailwx.info

Track history (hours):
 
Tides and Currents Weather Stations Pressure Air Temp Water Temp Dewpoint Dewpoint Depression Visibility Wind Speed Wind Dir Waves Ship Positions

Torm Alexandra

Last reported at 2017-Aug-29 03:03 UTC. Time now 2017-Oct-20 12:22 UTC.
Position N 33°19' E 032°58'.
Warning: this ship's position is 52 days out of date.

Length 183 m; draft 10.4 m.

Type: Ship. MMSI: 564458000.

Date/timePositionNaut miles runAvg speedWind from/ knotsBaromVisibWave heightAir tempDewpointWater temp
2017-Aug-29 03:03N 33°19' E 032°58'112.2
2017-Aug-29 02:57N 33°20' E 032°59'1712.1
2017-Aug-29 01:34N 33°36' E 033°03'67 2.5
2017-Aug-27 22:13N 34°43' E 033°19'0 0.0
2017-Aug-27 21:55N 34°43' E 033°19'0 0.0
2017-Aug-27 14:28N 34°43' E 033°19'0 0.0
2017-Aug-27 12:58N 34°43' E 033°19'0 0.0
2017-Aug-27 12:28N 34°43' E 033°19'1 0.0
2017-Aug-26 03:06N 34°41' E 033°20'0 0.0
2017-Aug-26 03:00N 34°41' E 033°20'0 0.0
2017-Aug-26 02:18N 34°41' E 033°20'0 0.0
2017-Aug-26 02:00N 34°41' E 033°20'25 0.7
2017-Aug-24 16:28N 34°28' E 032°55'613.2
2017-Aug-24 15:59N 34°26' E 032°47'612.9
2017-Aug-24 15:29N 34°27' E 032°39'613.0
2017-Aug-24 15:01N 34°28' E 032°32'712.8
2017-Aug-24 14:28N 34°29' E 032°24'612.8
2017-Aug-24 14:01N 34°30' E 032°17'612.5
2017-Aug-24 13:30N 34°31' E 032°09'612.5
2017-Aug-24 13:00N 34°32' E 032°02'1412.5
2017-Aug-24 11:55N 34°34' E 031°45'512.5
2017-Aug-24 11:31N 34°35' E 031°39'612.4
2017-Aug-24 11:01N 34°36' E 031°32'612.3
2017-Aug-24 10:30N 34°37' E 031°24'612.3
2017-Aug-24 10:01N 34°38' E 031°17'612.3
2017-Aug-24 09:31N 34°39' E 031°10'612.3
2017-Aug-24 09:00N 34°40' E 031°02'612.2
2017-Aug-24 08:30N 34°42' E 030°55'612.2
2017-Aug-24 08:01N 34°43' E 030°48'612.2
2017-Aug-24 07:31N 34°44' E 030°40'612.2
2017-Aug-24 07:01N 34°45' E 030°33'37011.6
2017-Aug-22 23:09N 37°34' E 023°45'212.6
2017-Aug-22 22:59N 37°36' E 023°44'612.6
2017-Aug-22 22:30N 37°42' E 023°41'612.6
2017-Aug-22 22:00N 37°47' E 023°38'510.8
2017-Aug-22 21:30N 37°50' E 023°32'612.4
2017-Aug-22 21:00N 37°51' E 023°24'612.4
2017-Aug-22 20:30N 37°52' E 023°16'612.3
2017-Aug-22 20:00N 37°54' E 023°09'3 0.1
2017-Aug-21 02:40N 37°55' E 023°05'0 0.3
2017-Aug-21 02:30N 37°55' E 023°05'1 1.5
2017-Aug-21 01:54N 37°54' E 023°06'0 1.2
2017-Aug-21 01:30N 37°54' E 023°06'0 0.1
2017-Aug-20 22:10N 37°55' E 023°06'0 0.1
2017-Aug-20 21:59N 37°55' E 023°06'0 0.1
2017-Aug-20 21:04N 37°55' E 023°06'0 0.0
2017-Aug-20 20:46N 37°55' E 023°06'0 0.0
2017-Aug-20 20:25N 37°55' E 023°06'0 0.0
2017-Aug-20 19:58N 37°55' E 023°06'0 0.0
2017-Aug-20 17:46N 37°54' E 023°06'0 0.1
2017-Aug-20 17:19N 37°54' E 023°06'0 0.1
2017-Aug-20 16:58N 37°54' E 023°06'0 0.0
2017-Aug-20 16:28N 37°54' E 023°06'0 0.0
2017-Aug-20 15:58N 37°54' E 023°06'0 0.0
2017-Aug-20 15:30N 37°54' E 023°06'0 0.2
2017-Aug-20 15:00N 37°55' E 023°06'0 0.4
2017-Aug-20 14:30N 37°54' E 023°06'5 2.0
2017-Aug-20 12:07N 37°53' E 023°12'611.4
2017-Aug-20 11:37N 37°52' E 023°19'212.5
2017-Aug-20 11:30N 37°52' E 023°21'612.4
2017-Aug-20 11:00N 37°50' E 023°28'611.7
2017-Aug-20 10:30N 37°51' E 023°36'611.4
2017-Aug-20 10:00N 37°47' E 023°41'612.5
2017-Aug-20 09:30N 37°42' E 023°45'612.3
2017-Aug-20 09:00N 37°36' E 023°47'612.4
2017-Aug-20 08:30N 37°30' E 023°50'612.7
2017-Aug-20 08:00N 37°24' E 023°52'612.5
2017-Aug-20 07:30N 37°18' E 023°54'712.2
2017-Aug-20 06:58N 37°11' E 023°56'  
Track history (hours):
 
Tides and Currents Weather Stations Pressure Air Temp Water Temp Dewpoint Dewpoint Depression Visibility Wind Speed Wind Dir Waves Ship Positions

Torm Alexandra

Last reported at 2017-Aug-29 03:03 UTC. Time now 2017-Oct-20 12:22 UTC.
Position N 33°19' E 032°58'.
Warning: this ship's position is 52 days out of date.

Length 183 m; draft 10.4 m.

Type: Ship. MMSI: 564458000.

Date/timePositionNaut miles runAvg speedWind from/ knotsBaromVisibWave heightAir tempDewpointWater temp
2017-Aug-29 03:03N 33°19' E 032°58'112.2
2017-Aug-29 02:57N 33°20' E 032°59'1712.1
2017-Aug-29 01:34N 33°36' E 033°03'67 2.5
2017-Aug-27 22:13N 34°43' E 033°19'0 0.0
2017-Aug-27 21:55N 34°43' E 033°19'0 0.0
2017-Aug-27 14:28N 34°43' E 033°19'0 0.0
2017-Aug-27 12:58N 34°43' E 033°19'0 0.0
2017-Aug-27 12:28N 34°43' E 033°19'1 0.0
2017-Aug-26 03:06N 34°41' E 033°20'0 0.0
2017-Aug-26 03:00N 34°41' E 033°20'0 0.0
2017-Aug-26 02:18N 34°41' E 033°20'0 0.0
2017-Aug-26 02:00N 34°41' E 033°20'25 0.7
2017-Aug-24 16:28N 34°28' E 032°55'613.2
2017-Aug-24 15:59N 34°26' E 032°47'612.9
2017-Aug-24 15:29N 34°27' E 032°39'613.0
2017-Aug-24 15:01N 34°28' E 032°32'712.8
2017-Aug-24 14:28N 34°29' E 032°24'612.8
2017-Aug-24 14:01N 34°30' E 032°17'612.5
2017-Aug-24 13:30N 34°31' E 032°09'612.5
2017-Aug-24 13:00N 34°32' E 032°02'1412.5
2017-Aug-24 11:55N 34°34' E 031°45'512.5
2017-Aug-24 11:31N 34°35' E 031°39'612.4
2017-Aug-24 11:01N 34°36' E 031°32'612.3
2017-Aug-24 10:30N 34°37' E 031°24'612.3
2017-Aug-24 10:01N 34°38' E 031°17'612.3
2017-Aug-24 09:31N 34°39' E 031°10'612.3
2017-Aug-24 09:00N 34°40' E 031°02'612.2
2017-Aug-24 08:30N 34°42' E 030°55'612.2
2017-Aug-24 08:01N 34°43' E 030°48'612.2
2017-Aug-24 07:31N 34°44' E 030°40'612.2
2017-Aug-24 07:01N 34°45' E 030°33'37011.6
2017-Aug-22 23:09N 37°34' E 023°45'212.6
2017-Aug-22 22:59N 37°36' E 023°44'612.6
2017-Aug-22 22:30N 37°42' E 023°41'612.6
2017-Aug-22 22:00N 37°47' E 023°38'510.8
2017-Aug-22 21:30N 37°50' E 023°32'612.4
2017-Aug-22 21:00N 37°51' E 023°24'612.4
2017-Aug-22 20:30N 37°52' E 023°16'612.3
2017-Aug-22 20:00N 37°54' E 023°09'3 0.1
2017-Aug-21 02:40N 37°55' E 023°05'0 0.3
2017-Aug-21 02:30N 37°55' E 023°05'1 1.5
2017-Aug-21 01:54N 37°54' E 023°06'0 1.2
2017-Aug-21 01:30N 37°54' E 023°06'0 0.1
2017-Aug-20 22:10N 37°55' E 023°06'0 0.1
2017-Aug-20 21:59N 37°55' E 023°06'0 0.1
2017-Aug-20 21:04N 37°55' E 023°06'0 0.0
2017-Aug-20 20:46N 37°55' E 023°06'0 0.0
2017-Aug-20 20:25N 37°55' E 023°06'0 0.0
2017-Aug-20 19:58N 37°55' E 023°06'0 0.0
2017-Aug-20 17:46N 37°54' E 023°06'0 0.1
2017-Aug-20 17:19N 37°54' E 023°06'0 0.1
2017-Aug-20 16:58N 37°54' E 023°06'0 0.0
2017-Aug-20 16:28N 37°54' E 023°06'0 0.0
2017-Aug-20 15:58N 37°54' E 023°06'0 0.0
2017-Aug-20 15:30N 37°54' E 023°06'0 0.2
2017-Aug-20 15:00N 37°55' E 023°06'0 0.4
2017-Aug-20 14:30N 37°54' E 023°06'5 2.0
2017-Aug-20 12:07N 37°53' E 023°12'611.4
2017-Aug-20 11:37N 37°52' E 023°19'212.5
2017-Aug-20 11:30N 37°52' E 023°21'612.4
2017-Aug-20 11:00N 37°50' E 023°28'611.7
2017-Aug-20 10:30N 37°51' E 023°36'611.4
2017-Aug-20 10:00N 37°47' E 023°41'612.5
2017-Aug-20 09:30N 37°42' E 023°45'612.3
2017-Aug-20 09:00N 37°36' E 023°47'612.4
2017-Aug-20 08:30N 37°30' E 023°50'612.7
2017-Aug-20 08:00N 37°24' E 023°52'612.5
2017-Aug-20 07:30N 37°18' E 023°54'712.2
2017-Aug-20 06:58N 37°11' E 023°56'  

Dump ship's entire track history